sensor_id;sensor_type;location;lat;lon;timestamp;temperature;humidity
15819;DHT22;8010;53.986;12.106;2023-11-22T00:01:50;2.00;99.90
15819;DHT22;8010;53.986;12.106;2023-11-22T00:04:16;2.00;99.90
15819;DHT22;8010;53.986;12.106;2023-11-22T00:06:43;2.00;99.90
15819;DHT22;8010;53.986;12.106;2023-11-22T00:09:09;2.00;99.90
15819;DHT22;8010;53.986;12.106;2023-11-22T00:11:35;1.90;99.90
15819;DHT22;8010;53.986;12.106;2023-11-22T00:14:00;1.90;99.90
15819;DHT22;8010;53.986;12.106;2023-11-22T00:16:26;1.90;99.90
15819;DHT22;8010;53.986;12.106;2023-11-22T00:18:52;1.90;99.90
15819;DHT22;8010;53.986;12.106;2023-11-22T00:21:18;1.90;99.90
15819;DHT22;8010;53.986;12.106;2023-11-22T00:23:45;1.80;99.90
15819;DHT22;8010;53.986;12.106;2023-11-22T00:26:12;1.80;99.90
15819;DHT22;8010;53.986;12.106;2023-11-22T00:28:37;1.80;99.90
15819;DHT22;8010;53.986;12.106;2023-11-22T00:31:03;1.80;99.90
15819;DHT22;8010;53.986;12.106;2023-11-22T00:33:28;1.80;99.90
15819;DHT22;8010;53.986;12.106;2023-11-22T00:35:54;1.70;99.90
15819;DHT22;8010;53.986;12.106;2023-11-22T00:38:22;1.70;99.90
15819;DHT22;8010;53.986;12.106;2023-11-22T00:40:47;1.70;99.90
15819;DHT22;8010;53.986;12.106;2023-11-22T00:43:13;1.60;99.90
15819;DHT22;8010;53.986;12.106;2023-11-22T00:45:38;1.60;99.90
15819;DHT22;8010;53.986;12.106;2023-11-22T00:48:04;1.60;99.90
15819;DHT22;8010;53.986;12.106;2023-11-22T00:50:29;1.60;99.90
15819;DHT22;8010;53.986;12.106;2023-11-22T00:52:55;1.60;99.90
15819;DHT22;8010;53.986;12.106;2023-11-22T00:55:20;1.60;99.90
15819;DHT22;8010;53.986;12.106;2023-11-22T00:57:46;1.50;99.90
15819;DHT22;8010;53.986;12.106;2023-11-22T01:00:12;1.60;99.90
15819;DHT22;8010;53.986;12.106;2023-11-22T01:02:39;1.60;99.90
15819;DHT22;8010;53.986;12.106;2023-11-22T01:05:08;1.70;99.90
15819;DHT22;8010;53.986;12.106;2023-11-22T01:07:38;1.70;99.90
15819;DHT22;8010;53.986;12.106;2023-11-22T01:10:04;1.70;99.90
15819;DHT22;8010;53.986;12.106;2023-11-22T01:12:31;1.70;99.90
15819;DHT22;8010;53.986;12.106;2023-11-22T01:14:56;1.70;99.90
15819;DHT22;8010;53.986;12.106;2023-11-22T01:17:22;1.70;99.90
15819;DHT22;8010;53.986;12.106;2023-11-22T01:19:48;1.70;99.90
15819;DHT22;8010;53.986;12.106;2023-11-22T01:22:13;1.70;99.90
15819;DHT22;8010;53.986;12.106;2023-11-22T01:24:39;1.60;99.90
15819;DHT22;8010;53.986;12.106;2023-11-22T01:27:04;1.60;99.90
15819;DHT22;8010;53.986;12.106;2023-11-22T01:29:30;1.60;99.90
15819;DHT22;8010;53.986;12.106;2023-11-22T01:31:56;1.70;99.90
15819;DHT22;8010;53.986;12.106;2023-11-22T01:34:21;1.60;99.90
15819;DHT22;8010;53.986;12.106;2023-11-22T01:36:50;1.60;99.90
15819;DHT22;8010;53.986;12.106;2023-11-22T01:39:15;1.60;99.90
15819;DHT22;8010;53.986;12.106;2023-11-22T01:41:44;1.60;99.90
15819;DHT22;8010;53.986;12.106;2023-11-22T01:44:10;1.60;99.90
15819;DHT22;8010;53.986;12.106;2023-11-22T01:46:35;1.60;99.90
15819;DHT22;8010;53.986;12.106;2023-11-22T01:49:01;1.60;99.90
15819;DHT22;8010;53.986;12.106;2023-11-22T01:51:27;1.60;99.90
15819;DHT22;8010;53.986;12.106;2023-11-22T01:53:55;1.60;99.90
15819;DHT22;8010;53.986;12.106;2023-11-22T01:56:26;1.50;99.90
15819;DHT22;8010;53.986;12.106;2023-11-22T01:58:52;1.50;99.90
15819;DHT22;8010;53.986;12.106;2023-11-22T02:01:20;1.50;99.90
15819;DHT22;8010;53.986;12.106;2023-11-22T02:03:46;1.50;99.90
15819;DHT22;8010;53.986;12.106;2023-11-22T02:06:17;1.50;99.90
15819;DHT22;8010;53.986;12.106;2023-11-22T02:08:44;1.50;99.90
15819;DHT22;8010;53.986;12.106;2023-11-22T02:11:10;1.50;99.90
15819;DHT22;8010;53.986;12.106;2023-11-22T02:13:36;1.50;99.90
15819;DHT22;8010;53.986;12.106;2023-11-22T02:16:02;1.50;99.90
15819;DHT22;8010;53.986;12.106;2023-11-22T02:18:29;1.50;99.90
15819;DHT22;8010;53.986;12.106;2023-11-22T02:20:56;1.50;99.90
15819;DHT22;8010;53.986;12.106;2023-11-22T02:23:22;1.40;99.90
15819;DHT22;8010;53.986;12.106;2023-11-22T02:25:48;1.40;99.90
15819;DHT22;8010;53.986;12.106;2023-11-22T02:28:14;1.40;99.90
15819;DHT22;8010;53.986;12.106;2023-11-22T02:30:40;1.30;99.90
15819;DHT22;8010;53.986;12.106;2023-11-22T02:33:05;1.20;99.90
15819;DHT22;8010;53.986;12.106;2023-11-22T02:35:31;1.20;99.90
15819;DHT22;8010;53.986;12.106;2023-11-22T02:37:58;1.20;99.90
15819;DHT22;8010;53.986;12.106;2023-11-22T02:40:24;1.10;99.90
15819;DHT22;8010;53.986;12.106;2023-11-22T02:42:51;1.10;99.90
15819;DHT22;8010;53.986;12.106;2023-11-22T02:45:18;1.10;99.90
15819;DHT22;8010;53.986;12.106;2023-11-22T02:47:45;1.00;99.90
15819;DHT22;8010;53.986;12.106;2023-11-22T02:50:12;1.10;99.90
15819;DHT22;8010;53.986;12.106;2023-11-22T02:52:38;1.10;99.90
15819;DHT22;8010;53.986;12.106;2023-11-22T02:55:04;1.10;99.90
15819;DHT22;8010;53.986;12.106;2023-11-22T02:57:31;1.10;99.90
15819;DHT22;8010;53.986;12.106;2023-11-22T02:59:57;1.10;99.90
15819;DHT22;8010;53.986;12.106;2023-11-22T03:02:23;1.10;99.90
15819;DHT22;8010;53.986;12.106;2023-11-22T03:04:49;1.00;99.90
15819;DHT22;8010;53.986;12.106;2023-11-22T03:07:15;1.00;99.90
15819;DHT22;8010;53.986;12.106;2023-11-22T03:09:40;0.90;99.90
15819;DHT22;8010;53.986;12.106;2023-11-22T03:12:08;0.90;99.90
15819;DHT22;8010;53.986;12.106;2023-11-22T03:14:35;0.80;99.90
15819;DHT22;8010;53.986;12.106;2023-11-22T03:17:00;0.80;99.90
15819;DHT22;8010;53.986;12.106;2023-11-22T03:19:26;0.80;99.90
15819;DHT22;8010;53.986;12.106;2023-11-22T03:21:51;0.80;99.90
15819;DHT22;8010;53.986;12.106;2023-11-22T03:24:17;0.80;99.90
15819;DHT22;8010;53.986;12.106;2023-11-22T03:26:42;0.80;99.90
15819;DHT22;8010;53.986;12.106;2023-11-22T03:29:08;0.80;99.90
15819;DHT22;8010;53.986;12.106;2023-11-22T03:31:34;0.70;99.90
15819;DHT22;8010;53.986;12.106;2023-11-22T03:33:59;0.70;99.90
15819;DHT22;8010;53.986;12.106;2023-11-22T03:36:25;0.70;99.90
15819;DHT22;8010;53.986;12.106;2023-11-22T03:38:50;0.70;99.90
15819;DHT22;8010;53.986;12.106;2023-11-22T03:41:16;0.60;99.90
15819;DHT22;8010;53.986;12.106;2023-11-22T03:43:46;0.60;99.90
15819;DHT22;8010;53.986;12.106;2023-11-22T03:46:12;0.60;99.90
15819;DHT22;8010;53.986;12.106;2023-11-22T03:48:38;0.60;99.90
15819;DHT22;8010;53.986;12.106;2023-11-22T03:51:03;0.60;99.90
15819;DHT22;8010;53.986;12.106;2023-11-22T03:53:29;0.50;99.90
15819;DHT22;8010;53.986;12.106;2023-11-22T03:55:54;0.50;99.90
15819;DHT22;8010;53.986;12.106;2023-11-22T03:58:20;0.60;99.90
15819;DHT22;8010;53.986;12.106;2023-11-22T04:00:46;0.60;99.90
15819;DHT22;8010;53.986;12.106;2023-11-22T04:03:11;0.60;99.90
15819;DHT22;8010;53.986;12.106;2023-11-22T04:05:37;0.60;99.90
15819;DHT22;8010;53.986;12.106;2023-11-22T04:08:03;0.50;99.90
15819;DHT22;8010;53.986;12.106;2023-11-22T04:10:28;0.40;99.90
15819;DHT22;8010;53.986;12.106;2023-11-22T04:12:54;0.40;99.90
15819;DHT22;8010;53.986;12.106;2023-11-22T04:15:19;0.30;99.90
15819;DHT22;8010;53.986;12.106;2023-11-22T04:17:45;0.30;99.90
15819;DHT22;8010;53.986;12.106;2023-11-22T04:20:12;0.30;99.90
15819;DHT22;8010;53.986;12.106;2023-11-22T04:22:44;0.30;99.90
15819;DHT22;8010;53.986;12.106;2023-11-22T04:25:12;0.30;99.90
15819;DHT22;8010;53.986;12.106;2023-11-22T04:27:41;0.20;99.90
15819;DHT22;8010;53.986;12.106;2023-11-22T04:30:08;0.20;99.90
15819;DHT22;8010;53.986;12.106;2023-11-22T04:32:40;0.30;99.90
15819;DHT22;8010;53.986;12.106;2023-11-22T04:35:10;0.30;99.90
15819;DHT22;8010;53.986;12.106;2023-11-22T04:37:36;0.30;99.90
15819;DHT22;8010;53.986;12.106;2023-11-22T04:40:02;0.30;99.90
15819;DHT22;8010;53.986;12.106;2023-11-22T04:42:30;0.20;99.90
15819;DHT22;8010;53.986;12.106;2023-11-22T04:44:56;0.20;99.90
15819;DHT22;8010;53.986;12.106;2023-11-22T04:47:21;0.20;99.90
15819;DHT22;8010;53.986;12.106;2023-11-22T04:49:47;0.20;99.90
15819;DHT22;8010;53.986;12.106;2023-11-22T04:52:13;0.10;99.90
15819;DHT22;8010;53.986;12.106;2023-11-22T04:54:39;0.20;99.90
15819;DHT22;8010;53.986;12.106;2023-11-22T04:57:05;0.10;99.90
15819;DHT22;8010;53.986;12.106;2023-11-22T04:59:31;0.10;99.90
15819;DHT22;8010;53.986;12.106;2023-11-22T05:01:57;0.10;99.90
15819;DHT22;8010;53.986;12.106;2023-11-22T05:04:22;0.00;99.90
15819;DHT22;8010;53.986;12.106;2023-11-22T05:06:48;-0.10;99.90
15819;DHT22;8010;53.986;12.106;2023-11-22T05:09:13;-0.20;99.90
15819;DHT22;8010;53.986;12.106;2023-11-22T05:11:39;-0.20;99.90
15819;DHT22;8010;53.986;12.106;2023-11-22T05:14:07;-0.10;99.90
15819;DHT22;8010;53.986;12.106;2023-11-22T05:16:33;-0.10;99.90
15819;DHT22;8010;53.986;12.106;2023-11-22T05:18:59;-0.10;99.90
15819;DHT22;8010;53.986;12.106;2023-11-22T05:21:24;-0.10;99.90
15819;DHT22;8010;53.986;12.106;2023-11-22T05:23:50;0.00;99.90
15819;DHT22;8010;53.986;12.106;2023-11-22T05:26:15;0.00;99.90
15819;DHT22;8010;53.986;12.106;2023-11-22T05:28:41;-0.10;99.90
15819;DHT22;8010;53.986;12.106;2023-11-22T05:31:07;-0.10;99.90
15819;DHT22;8010;53.986;12.106;2023-11-22T05:33:32;0.00;99.90
15819;DHT22;8010;53.986;12.106;2023-11-22T05:35:58;0.00;99.90
15819;DHT22;8010;53.986;12.106;2023-11-22T05:38:23;-0.10;99.90
15819;DHT22;8010;53.986;12.106;2023-11-22T05:40:49;-0.10;99.90
15819;DHT22;8010;53.986;12.106;2023-11-22T05:43:15;-0.10;99.90
15819;DHT22;8010;53.986;12.106;2023-11-22T05:45:40;-0.20;99.90
15819;DHT22;8010;53.986;12.106;2023-11-22T05:48:06;-0.10;99.90
15819;DHT22;8010;53.986;12.106;2023-11-22T05:50:31;-0.20;99.90
15819;DHT22;8010;53.986;12.106;2023-11-22T05:52:57;-0.20;99.90
15819;DHT22;8010;53.986;12.106;2023-11-22T05:55:22;-0.10;99.90
15819;DHT22;8010;53.986;12.106;2023-11-22T05:57:48;-0.10;99.90
15819;DHT22;8010;53.986;12.106;2023-11-22T06:00:14;-0.20;99.90
15819;DHT22;8010;53.986;12.106;2023-11-22T06:02:41;-0.10;99.90
15819;DHT22;8010;53.986;12.106;2023-11-22T06:05:07;-0.10;99.90
15819;DHT22;8010;53.986;12.106;2023-11-22T06:07:32;-0.10;99.90
15819;DHT22;8010;53.986;12.106;2023-11-22T06:09:58;-0.20;99.90
15819;DHT22;8010;53.986;12.106;2023-11-22T06:12:24;-0.20;99.90
15819;DHT22;8010;53.986;12.106;2023-11-22T06:14:50;-0.20;99.90
15819;DHT22;8010;53.986;12.106;2023-11-22T06:17:15;-0.30;99.90
15819;DHT22;8010;53.986;12.106;2023-11-22T06:19:41;-0.30;99.90
15819;DHT22;8010;53.986;12.106;2023-11-22T06:22:07;-0.40;99.90
15819;DHT22;8010;53.986;12.106;2023-11-22T06:24:33;-0.40;99.90
15819;DHT22;8010;53.986;12.106;2023-11-22T06:27:01;-0.40;99.90
15819;DHT22;8010;53.986;12.106;2023-11-22T06:29:27;-0.40;99.90
15819;DHT22;8010;53.986;12.106;2023-11-22T06:31:53;-0.50;99.90
15819;DHT22;8010;53.986;12.106;2023-11-22T06:34:19;-0.50;99.90
15819;DHT22;8010;53.986;12.106;2023-11-22T06:36:44;-0.50;99.90
15819;DHT22;8010;53.986;12.106;2023-11-22T06:39:10;-0.60;99.90
15819;DHT22;8010;53.986;12.106;2023-11-22T06:41:41;-0.60;99.90
15819;DHT22;8010;53.986;12.106;2023-11-22T06:44:07;-0.60;99.90
15819;DHT22;8010;53.986;12.106;2023-11-22T06:46:32;-0.50;99.90
15819;DHT22;8010;53.986;12.106;2023-11-22T06:48:58;-0.50;99.90
15819;DHT22;8010;53.986;12.106;2023-11-22T06:51:24;-0.40;99.90
15819;DHT22;8010;53.986;12.106;2023-11-22T06:53:49;-0.40;99.90
15819;DHT22;8010;53.986;12.106;2023-11-22T06:56:15;-0.40;99.90
15819;DHT22;8010;53.986;12.106;2023-11-22T06:58:40;-0.40;99.90
15819;DHT22;8010;53.986;12.106;2023-11-22T07:01:06;-0.40;99.90
15819;DHT22;8010;53.986;12.106;2023-11-22T07:03:32;-0.40;99.90
15819;DHT22;8010;53.986;12.106;2023-11-22T07:05:58;-0.50;99.90
15819;DHT22;8010;53.986;12.106;2023-11-22T07:08:24;-0.40;99.90
15819;DHT22;8010;53.986;12.106;2023-11-22T07:10:51;-0.40;99.90
15819;DHT22;8010;53.986;12.106;2023-11-22T07:13:18;-0.40;99.90
15819;DHT22;8010;53.986;12.106;2023-11-22T07:15:43;-0.40;99.90
15819;DHT22;8010;53.986;12.106;2023-11-22T07:18:09;-0.40;99.90
15819;DHT22;8010;53.986;12.106;2023-11-22T07:20:35;-0.30;99.90
15819;DHT22;8010;53.986;12.106;2023-11-22T07:23:01;-0.20;99.90
15819;DHT22;8010;53.986;12.106;2023-11-22T07:25:27;-0.10;99.90
15819;DHT22;8010;53.986;12.106;2023-11-22T07:27:54;0.00;99.90
15819;DHT22;8010;53.986;12.106;2023-11-22T07:30:20;0.10;99.90
15819;DHT22;8010;53.986;12.106;2023-11-22T07:32:51;0.10;99.90
15819;DHT22;8010;53.986;12.106;2023-11-22T07:35:20;0.20;99.90
15819;DHT22;8010;53.986;12.106;2023-11-22T07:37:46;0.30;99.90
15819;DHT22;8010;53.986;12.106;2023-11-22T07:40:13;0.30;99.90
15819;DHT22;8010;53.986;12.106;2023-11-22T07:42:40;0.40;99.90
15819;DHT22;8010;53.986;12.106;2023-11-22T07:45:06;0.50;99.90
15819;DHT22;8010;53.986;12.106;2023-11-22T07:47:32;0.60;99.90
15819;DHT22;8010;53.986;12.106;2023-11-22T07:49:57;0.70;99.90
15819;DHT22;8010;53.986;12.106;2023-11-22T07:52:24;0.80;99.90
15819;DHT22;8010;53.986;12.106;2023-11-22T07:54:58;0.80;99.90
15819;DHT22;8010;53.986;12.106;2023-11-22T07:57:23;0.90;99.90
15819;DHT22;8010;53.986;12.106;2023-11-22T07:59:49;1.00;99.90
15819;DHT22;8010;53.986;12.106;2023-11-22T08:02:16;1.00;99.90
15819;DHT22;8010;53.986;12.106;2023-11-22T08:04:44;1.10;99.90
15819;DHT22;8010;53.986;12.106;2023-11-22T08:07:10;1.20;99.90
15819;DHT22;8010;53.986;12.106;2023-11-22T08:09:43;1.30;99.90
15819;DHT22;8010;53.986;12.106;2023-11-22T08:12:09;1.40;99.90
15819;DHT22;8010;53.986;12.106;2023-11-22T08:14:37;1.50;99.90
15819;DHT22;8010;53.986;12.106;2023-11-22T08:17:03;1.50;99.90
15819;DHT22;8010;53.986;12.106;2023-11-22T08:19:29;1.60;99.90
15819;DHT22;8010;53.986;12.106;2023-11-22T08:21:55;1.50;99.90
15819;DHT22;8010;53.986;12.106;2023-11-22T08:24:20;1.60;99.90
15819;DHT22;8010;53.986;12.106;2023-11-22T08:26:46;1.70;99.90
15819;DHT22;8010;53.986;12.106;2023-11-22T08:29:12;1.80;99.90
15819;DHT22;8010;53.986;12.106;2023-11-22T08:31:40;1.90;99.90
15819;DHT22;8010;53.986;12.106;2023-11-22T08:34:05;1.90;99.90
15819;DHT22;8010;53.986;12.106;2023-11-22T08:36:35;1.90;99.90
15819;DHT22;8010;53.986;12.106;2023-11-22T08:39:02;1.90;99.90
15819;DHT22;8010;53.986;12.106;2023-11-22T08:41:28;2.00;99.90
15819;DHT22;8010;53.986;12.106;2023-11-22T08:43:55;2.00;99.90
15819;DHT22;8010;53.986;12.106;2023-11-22T08:46:21;2.00;99.90
15819;DHT22;8010;53.986;12.106;2023-11-22T08:48:47;2.00;99.90
15819;DHT22;8010;53.986;12.106;2023-11-22T08:51:12;2.00;99.90
15819;DHT22;8010;53.986;12.106;2023-11-22T08:53:38;2.10;99.90
15819;DHT22;8010;53.986;12.106;2023-11-22T08:56:04;2.10;99.90
15819;DHT22;8010;53.986;12.106;2023-11-22T08:58:34;2.10;99.90
15819;DHT22;8010;53.986;12.106;2023-11-22T09:00:59;2.20;99.90
15819;DHT22;8010;53.986;12.106;2023-11-22T09:03:25;2.20;99.90
15819;DHT22;8010;53.986;12.106;2023-11-22T09:05:51;2.40;99.90
15819;DHT22;8010;53.986;12.106;2023-11-22T09:08:19;2.40;99.90
15819;DHT22;8010;53.986;12.106;2023-11-22T09:10:46;2.50;99.90
15819;DHT22;8010;53.986;12.106;2023-11-22T09:13:12;2.40;99.90
15819;DHT22;8010;53.986;12.106;2023-11-22T09:15:45;2.50;99.90
15819;DHT22;8010;53.986;12.106;2023-11-22T09:18:13;2.50;99.90
15819;DHT22;8010;53.986;12.106;2023-11-22T09:20:39;2.50;99.90
15819;DHT22;8010;53.986;12.106;2023-11-22T09:23:05;2.60;99.90
15819;DHT22;8010;53.986;12.106;2023-11-22T09:25:30;2.60;99.90
15819;DHT22;8010;53.986;12.106;2023-11-22T09:27:58;2.50;99.90
15819;DHT22;8010;53.986;12.106;2023-11-22T09:30:26;2.50;99.90
15819;DHT22;8010;53.986;12.106;2023-11-22T09:33:08;2.50;99.90
15819;DHT22;8010;53.986;12.106;2023-11-22T09:35:35;2.50;99.90
15819;DHT22;8010;53.986;12.106;2023-11-22T09:38:02;2.50;99.90
15819;DHT22;8010;53.986;12.106;2023-11-22T09:40:28;2.50;99.90
15819;DHT22;8010;53.986;12.106;2023-11-22T09:42:55;2.50;99.90
15819;DHT22;8010;53.986;12.106;2023-11-22T09:45:21;2.50;99.90
15819;DHT22;8010;53.986;12.106;2023-11-22T09:47:47;2.60;99.90
15819;DHT22;8010;53.986;12.106;2023-11-22T09:50:39;2.60;99.90
15819;DHT22;8010;53.986;12.106;2023-11-22T09:53:14;3.80;99.90
15819;DHT22;8010;53.986;12.106;2023-11-22T09:55:45;2.70;99.90
15819;DHT22;8010;53.986;12.106;2023-11-22T09:58:16;2.70;99.90
15819;DHT22;8010;53.986;12.106;2023-11-22T10:00:42;2.80;99.90
15819;DHT22;8010;53.986;12.106;2023-11-22T10:03:10;2.80;99.90
15819;DHT22;8010;53.986;12.106;2023-11-22T10:05:39;2.80;99.90
15819;DHT22;8010;53.986;12.106;2023-11-22T10:08:05;2.90;99.90
15819;DHT22;8010;53.986;12.106;2023-11-22T10:10:32;2.90;99.90
15819;DHT22;8010;53.986;12.106;2023-11-22T10:12:59;2.90;99.90
15819;DHT22;8010;53.986;12.106;2023-11-22T10:15:27;2.90;99.90
15819;DHT22;8010;53.986;12.106;2023-11-22T10:17:57;3.00;99.90
15819;DHT22;8010;53.986;12.106;2023-11-22T10:20:24;3.10;99.90
15819;DHT22;8010;53.986;12.106;2023-11-22T10:22:51;3.10;99.90
15819;DHT22;8010;53.986;12.106;2023-11-22T10:25:17;3.20;99.90
15819;DHT22;8010;53.986;12.106;2023-11-22T10:27:45;3.30;99.90
15819;DHT22;8010;53.986;12.106;2023-11-22T10:30:11;3.40;99.90
15819;DHT22;8010;53.986;12.106;2023-11-22T10:32:37;3.50;99.90
15819;DHT22;8010;53.986;12.106;2023-11-22T10:35:07;3.50;99.90
15819;DHT22;8010;53.986;12.106;2023-11-22T10:37:33;3.60;99.90
15819;DHT22;8010;53.986;12.106;2023-11-22T10:40:00;3.70;99.90
15819;DHT22;8010;53.986;12.106;2023-11-22T10:42:26;3.70;99.90
15819;DHT22;8010;53.986;12.106;2023-11-22T10:44:55;3.70;99.90
15819;DHT22;8010;53.986;12.106;2023-11-22T10:47:22;3.80;99.90
15819;DHT22;8010;53.986;12.106;2023-11-22T10:49:49;3.90;99.90
15819;DHT22;8010;53.986;12.106;2023-11-22T10:52:16;3.90;99.90
15819;DHT22;8010;53.986;12.106;2023-11-22T10:54:49;4.00;99.90
15819;DHT22;8010;53.986;12.106;2023-11-22T10:57:19;4.10;99.90
15819;DHT22;8010;53.986;12.106;2023-11-22T10:59:53;4.10;99.90
15819;DHT22;8010;53.986;12.106;2023-11-22T11:02:21;4.20;99.90
15819;DHT22;8010;53.986;12.106;2023-11-22T11:05:02;4.30;99.90
15819;DHT22;8010;53.986;12.106;2023-11-22T11:07:37;4.30;99.90
15819;DHT22;8010;53.986;12.106;2023-11-22T11:10:06;4.20;99.90
15819;DHT22;8010;53.986;12.106;2023-11-22T11:12:31;4.20;99.90
15819;DHT22;8010;53.986;12.106;2023-11-22T11:14:58;4.30;99.90
15819;DHT22;8010;53.986;12.106;2023-11-22T11:17:24;4.40;99.90
15819;DHT22;8010;53.986;12.106;2023-11-22T11:19:50;4.50;99.90
15819;DHT22;8010;53.986;12.106;2023-11-22T11:22:15;4.60;99.90
15819;DHT22;8010;53.986;12.106;2023-11-22T11:24:47;4.60;99.90
15819;DHT22;8010;53.986;12.106;2023-11-22T11:27:13;4.70;99.90
15819;DHT22;8010;53.986;12.106;2023-11-22T11:29:40;4.70;99.90
15819;DHT22;8010;53.986;12.106;2023-11-22T11:32:12;4.70;99.90
15819;DHT22;8010;53.986;12.106;2023-11-22T11:34:48;4.70;99.90
15819;DHT22;8010;53.986;12.106;2023-11-22T11:37:14;4.60;99.90
15819;DHT22;8010;53.986;12.106;2023-11-22T11:39:40;4.50;99.90
15819;DHT22;8010;53.986;12.106;2023-11-22T11:42:12;4.40;99.90
15819;DHT22;8010;53.986;12.106;2023-11-22T11:44:52;4.30;99.90
15819;DHT22;8010;53.986;12.106;2023-11-22T11:47:27;4.30;99.90
15819;DHT22;8010;53.986;12.106;2023-11-22T11:49:55;4.30;99.90
15819;DHT22;8010;53.986;12.106;2023-11-22T11:52:21;4.30;99.90
15819;DHT22;8010;53.986;12.106;2023-11-22T11:54:46;4.30;99.90
15819;DHT22;8010;53.986;12.106;2023-11-22T11:57:12;4.30;99.90
15819;DHT22;8010;53.986;12.106;2023-11-22T11:59:38;4.20;99.90
15819;DHT22;8010;53.986;12.106;2023-11-22T12:02:03;4.10;99.90
15819;DHT22;8010;53.986;12.106;2023-11-22T12:04:31;4.10;99.90
15819;DHT22;8010;53.986;12.106;2023-11-22T12:06:58;4.20;99.90
15819;DHT22;8010;53.986;12.106;2023-11-22T12:09:27;4.30;99.90
15819;DHT22;8010;53.986;12.106;2023-11-22T12:11:54;4.20;99.90
15819;DHT22;8010;53.986;12.106;2023-11-22T12:14:22;4.20;99.90
15819;DHT22;8010;53.986;12.106;2023-11-22T12:16:50;4.10;99.90
15819;DHT22;8010;53.986;12.106;2023-11-22T12:19:24;4.10;99.90
15819;DHT22;8010;53.986;12.106;2023-11-22T12:21:50;4.10;99.90
15819;DHT22;8010;53.986;12.106;2023-11-22T12:24:16;4.10;99.90
15819;DHT22;8010;53.986;12.106;2023-11-22T12:26:45;4.10;99.90
15819;DHT22;8010;53.986;12.106;2023-11-22T12:29:14;4.10;99.90
15819;DHT22;8010;53.986;12.106;2023-11-22T12:31:49;4.10;99.90
15819;DHT22;8010;53.986;12.106;2023-11-22T12:34:17;4.00;99.90
15819;DHT22;8010;53.986;12.106;2023-11-22T12:36:43;4.00;99.90
15819;DHT22;8010;53.986;12.106;2023-11-22T12:39:10;4.00;99.90
15819;DHT22;8010;53.986;12.106;2023-11-22T12:41:49;4.00;99.90
15819;DHT22;8010;53.986;12.106;2023-11-22T12:44:16;3.90;99.90
15819;DHT22;8010;53.986;12.106;2023-11-22T12:46:49;3.90;99.90
15819;DHT22;8010;53.986;12.106;2023-11-22T12:49:18;3.90;99.90
15819;DHT22;8010;53.986;12.106;2023-11-22T12:51:51;3.90;99.90
15819;DHT22;8010;53.986;12.106;2023-11-22T12:54:18;3.90;99.90
15819;DHT22;8010;53.986;12.106;2023-11-22T12:56:55;3.90;99.90
15819;DHT22;8010;53.986;12.106;2023-11-22T12:59:24;3.90;99.90
15819;DHT22;8010;53.986;12.106;2023-11-22T13:01:50;3.90;99.90
15819;DHT22;8010;53.986;12.106;2023-11-22T13:04:17;3.90;99.90
15819;DHT22;8010;53.986;12.106;2023-11-22T13:06:43;3.80;99.90
15819;DHT22;8010;53.986;12.106;2023-11-22T13:09:10;3.80;99.90
15819;DHT22;8010;53.986;12.106;2023-11-22T13:11:42;3.90;99.90
15819;DHT22;8010;53.986;12.106;2023-11-22T13:14:11;3.80;99.90
15819;DHT22;8010;53.986;12.106;2023-11-22T13:16:40;3.80;99.90
15819;DHT22;8010;53.986;12.106;2023-11-22T13:19:05;3.80;99.90
15819;DHT22;8010;53.986;12.106;2023-11-22T13:21:31;3.80;99.90
15819;DHT22;8010;53.986;12.106;2023-11-22T13:23:57;3.80;99.90
15819;DHT22;8010;53.986;12.106;2023-11-22T13:26:25;3.80;99.90
15819;DHT22;8010;53.986;12.106;2023-11-22T13:28:51;3.80;99.90
15819;DHT22;8010;53.986;12.106;2023-11-22T13:31:18;3.80;99.90
15819;DHT22;8010;53.986;12.106;2023-11-22T13:33:43;3.80;99.90
15819;DHT22;8010;53.986;12.106;2023-11-22T13:36:12;3.70;99.90
15819;DHT22;8010;53.986;12.106;2023-11-22T13:38:39;3.70;99.90
15819;DHT22;8010;53.986;12.106;2023-11-22T13:41:05;3.70;99.90
15819;DHT22;8010;53.986;12.106;2023-11-22T13:43:30;3.70;99.90
15819;DHT22;8010;53.986;12.106;2023-11-22T13:45:58;3.70;99.90
15819;DHT22;8010;53.986;12.106;2023-11-22T13:48:24;3.60;99.90
15819;DHT22;8010;53.986;12.106;2023-11-22T13:50:50;3.60;99.90
15819;DHT22;8010;53.986;12.106;2023-11-22T13:53:16;3.60;99.90
15819;DHT22;8010;53.986;12.106;2023-11-22T13:55:46;3.60;99.90
15819;DHT22;8010;53.986;12.106;2023-11-22T13:58:12;3.60;99.90
15819;DHT22;8010;53.986;12.106;2023-11-22T14:00:38;3.60;99.90
15819;DHT22;8010;53.986;12.106;2023-11-22T14:03:04;3.60;99.90
15819;DHT22;8010;53.986;12.106;2023-11-22T14:05:32;3.50;99.90
15819;DHT22;8010;53.986;12.106;2023-11-22T14:07:57;3.50;99.90
15819;DHT22;8010;53.986;12.106;2023-11-22T14:10:24;3.50;99.90
15819;DHT22;8010;53.986;12.106;2023-11-22T14:12:50;3.50;99.90
15819;DHT22;8010;53.986;12.106;2023-11-22T14:15:16;3.40;99.90
15819;DHT22;8010;53.986;12.106;2023-11-22T14:17:42;3.40;99.90
15819;DHT22;8010;53.986;12.106;2023-11-22T14:20:12;3.40;99.90
15819;DHT22;8010;53.986;12.106;2023-11-22T14:22:39;3.40;99.90
15819;DHT22;8010;53.986;12.106;2023-11-22T14:25:06;3.40;99.90
15819;DHT22;8010;53.986;12.106;2023-11-22T14:27:37;3.40;99.90
15819;DHT22;8010;53.986;12.106;2023-11-22T14:30:03;3.30;99.90
15819;DHT22;8010;53.986;12.106;2023-11-22T14:32:33;3.40;99.90
15819;DHT22;8010;53.986;12.106;2023-11-22T14:35:04;3.40;99.90
15819;DHT22;8010;53.986;12.106;2023-11-22T14:37:29;3.30;99.90
15819;DHT22;8010;53.986;12.106;2023-11-22T14:39:56;3.40;99.90
15819;DHT22;8010;53.986;12.106;2023-11-22T14:42:22;3.30;99.90
15819;DHT22;8010;53.986;12.106;2023-11-22T14:44:48;3.30;99.90
15819;DHT22;8010;53.986;12.106;2023-11-22T14:47:14;3.30;99.90
15819;DHT22;8010;53.986;12.106;2023-11-22T14:49:51;3.30;99.90
15819;DHT22;8010;53.986;12.106;2023-11-22T14:52:17;3.30;99.90
15819;DHT22;8010;53.986;12.106;2023-11-22T14:54:45;3.20;99.90
15819;DHT22;8010;53.986;12.106;2023-11-22T14:57:11;3.20;99.90
15819;DHT22;8010;53.986;12.106;2023-11-22T14:59:41;3.20;99.90
15819;DHT22;8010;53.986;12.106;2023-11-22T15:02:07;3.20;99.90
15819;DHT22;8010;53.986;12.106;2023-11-22T15:04:37;3.20;99.90
15819;DHT22;8010;53.986;12.106;2023-11-22T15:07:03;3.10;99.90
15819;DHT22;8010;53.986;12.106;2023-11-22T15:09:30;3.20;99.90
15819;DHT22;8010;53.986;12.106;2023-11-22T15:11:58;3.10;99.90
15819;DHT22;8010;53.986;12.106;2023-11-22T15:14:24;3.10;99.90
15819;DHT22;8010;53.986;12.106;2023-11-22T15:16:51;3.10;99.90
15819;DHT22;8010;53.986;12.106;2023-11-22T15:19:17;3.10;99.90
15819;DHT22;8010;53.986;12.106;2023-11-22T15:21:43;3.10;99.90
15819;DHT22;8010;53.986;12.106;2023-11-22T15:24:09;3.10;99.90
15819;DHT22;8010;53.986;12.106;2023-11-22T15:26:34;3.10;99.90
15819;DHT22;8010;53.986;12.106;2023-11-22T15:29:00;3.10;99.90
15819;DHT22;8010;53.986;12.106;2023-11-22T15:31:26;3.00;99.90
15819;DHT22;8010;53.986;12.106;2023-11-22T15:33:51;3.00;99.90
15819;DHT22;8010;53.986;12.106;2023-11-22T15:36:17;3.00;99.90
15819;DHT22;8010;53.986;12.106;2023-11-22T15:38:42;3.00;99.90
15819;DHT22;8010;53.986;12.106;2023-11-22T15:41:08;3.00;99.90
15819;DHT22;8010;53.986;12.106;2023-11-22T15:43:34;3.00;99.90